createdAt,value
2022-10-17T00:01:00.931Z,30.20
2022-10-17T00:03:34.749Z,26.10
2022-10-17T00:06:12.140Z,30.50
2022-10-17T00:08:42.056Z,35.50
2022-10-17T00:11:20.986Z,31.30
2022-10-17T00:13:50.489Z,41.20
2022-10-17T00:16:29.654Z,32.60
2022-10-17T00:18:57.594Z,26.90
2022-10-17T00:21:26.242Z,34.80
2022-10-17T00:23:54.639Z,32.80
2022-10-17T00:26:23.126Z,35.90
2022-10-17T00:28:52.622Z,28.30
2022-10-17T00:31:22.273Z,30.80
2022-10-17T00:33:51.627Z,40.20
2022-10-17T00:36:23.380Z,25.80
2022-10-17T00:38:55.949Z,27.40
2022-10-17T00:41:31.976Z,27.90
2022-10-17T00:44:06.634Z,45.50
2022-10-17T00:46:38.984Z,32.70
2022-10-17T00:49:12.522Z,86.40
2022-10-17T00:51:40.356Z,35.20
2022-10-17T00:54:09.655Z,33.00
2022-10-17T00:56:38.440Z,31.40
2022-10-17T00:59:10.951Z,29.30
2022-10-17T01:01:41.653Z,30.30
2022-10-17T01:04:09.951Z,38.90
2022-10-17T01:06:40.496Z,40.10
2022-10-17T01:09:08.507Z,35.10
2022-10-17T01:11:52.394Z,27.30
2022-10-17T01:14:39.034Z,42.20
2022-10-17T01:17:35.360Z,39.60
2022-10-17T01:20:23.254Z,34.80
2022-10-17T01:23:10.794Z,28.80
2022-10-17T01:26:16.186Z,28.00
2022-10-17T01:29:16.474Z,23.60
2022-10-17T01:31:50.644Z,25.60
2022-10-17T01:34:32.582Z,25.10
2022-10-17T01:37:20.402Z,21.80
2022-10-17T01:40:04.950Z,25.80
2022-10-17T01:42:59.502Z,21.80
2022-10-17T01:45:53.995Z,22.60
2022-10-17T01:48:30.920Z,20.90
2022-10-17T01:51:06.041Z,21.80
2022-10-17T01:53:39.620Z,25.30
2022-10-17T01:56:10.199Z,23.20
2022-10-17T01:58:44.265Z,25.10
2022-10-17T02:01:13.394Z,35.00
2022-10-17T02:03:44.704Z,32.50
2022-10-17T02:06:12.536Z,29.20
2022-10-17T02:08:51.159Z,25.50
2022-10-17T02:11:23.964Z,31.70
2022-10-17T02:14:13.786Z,34.30
2022-10-17T02:17:00.102Z,30.30
2022-10-17T02:19:46.727Z,75.30
2022-10-17T02:22:33.427Z,47.60
2022-10-17T02:25:07.857Z,42.60
2022-10-17T02:27:47.949Z,57.90
2022-10-17T02:30:42.247Z,46.20
2022-10-17T02:33:35.546Z,38.10
2022-10-17T02:36:09.811Z,47.20
2022-10-17T02:38:39.481Z,29.60
2022-10-17T02:41:11.852Z,49.50
2022-10-17T02:43:40.596Z,31.10
2022-10-17T02:46:08.528Z,22.70
2022-10-17T02:48:44.247Z,26.30
2022-10-17T02:51:29.874Z,22.20
2022-10-17T02:54:17.516Z,22.00
2022-10-17T02:57:09.782Z,23.70
2022-10-17T02:59:41.542Z,23.50
2022-10-17T03:02:09.458Z,29.60
2022-10-17T03:04:38.406Z,31.30
2022-10-17T03:07:06.327Z,29.10
2022-10-17T03:09:34.242Z,23.00
2022-10-17T03:12:02.103Z,19.60
2022-10-17T03:14:30.451Z,22.60
2022-10-17T03:16:58.289Z,18.50
2022-10-17T03:19:26.936Z,27.10
2022-10-17T03:21:56.527Z,25.30
2022-10-17T03:24:24.477Z,22.90
2022-10-17T03:26:52.381Z,24.30
2022-10-17T03:29:20.363Z,22.30
2022-10-17T03:31:48.359Z,23.90
2022-10-17T03:34:18.789Z,26.40
2022-10-17T03:36:46.998Z,27.70
2022-10-17T03:39:15.007Z,24.60
2022-10-17T03:41:43.084Z,20.40
2022-10-17T03:44:11.005Z,20.60
2022-10-17T03:46:39.235Z,20.50
2022-10-17T03:49:09.504Z,21.30
2022-10-17T03:51:37.696Z,23.80
2022-10-17T03:54:09.335Z,22.30
2022-10-17T03:56:38.030Z,23.30
2022-10-17T03:59:13.517Z,23.80
2022-10-17T04:01:42.192Z,21.50
2022-10-17T04:04:10.815Z,17.80
2022-10-17T04:06:38.797Z,17.90
2022-10-17T04:09:07.527Z,21.50
2022-10-17T04:11:58.153Z,20.30
2022-10-17T04:14:26.074Z,25.10
2022-10-17T04:16:54.165Z,24.50
2022-10-17T04:19:22.289Z,22.80
2022-10-17T04:21:50.632Z,20.60
2022-10-17T04:24:18.686Z,18.40
2022-10-17T04:26:58.540Z,16.90
2022-10-17T04:29:28.941Z,19.30
2022-10-17T04:32:05.542Z,15.60
2022-10-17T04:37:09.867Z,16.30
2022-10-17T04:39:37.873Z,18.50
2022-10-17T04:42:06.328Z,16.00
2022-10-17T04:44:35.677Z,21.60
2022-10-17T04:47:03.800Z,23.00
2022-10-17T04:49:31.852Z,21.50
2022-10-17T04:52:06.955Z,20.30
2022-10-17T04:54:40.769Z,24.70
2022-10-17T04:57:10.590Z,19.40
2022-10-17T04:59:39.884Z,23.70
2022-10-17T05:02:33.948Z,33.30
2022-10-17T05:05:02.927Z,36.10
2022-10-17T05:07:30.895Z,31.90
2022-10-17T05:10:11.436Z,39.10
2022-10-17T05:12:41.007Z,37.90
2022-10-17T05:15:09.595Z,23.50
2022-10-17T05:17:37.611Z,23.60
2022-10-17T05:20:06.902Z,24.50
2022-10-17T05:22:38.246Z,26.80
2022-10-17T05:25:09.580Z,37.20
2022-10-17T05:27:38.265Z,23.30
2022-10-17T05:30:07.520Z,25.80
2022-10-17T05:32:36.518Z,39.30
2022-10-17T05:35:05.054Z,28.40
2022-10-17T05:37:33.182Z,30.00
2022-10-17T05:40:01.785Z,32.70
2022-10-17T05:42:31.166Z,27.20
2022-10-17T05:44:59.628Z,31.60
2022-10-17T05:47:28.013Z,25.60
2022-10-17T05:49:56.061Z,36.10
2022-10-17T05:52:28.690Z,23.80
2022-10-17T05:55:08.415Z,24.50
2022-10-17T05:57:36.471Z,23.90
2022-10-17T06:00:08.724Z,21.20
2022-10-17T06:02:46.060Z,19.90
2022-10-17T06:05:16.032Z,22.00
2022-10-17T06:07:44.785Z,18.40
2022-10-17T06:10:16.389Z,22.00
2022-10-17T06:12:44.499Z,20.50
2022-10-17T06:15:13.286Z,20.90
2022-10-17T06:17:44.192Z,19.80
2022-10-17T06:20:12.293Z,22.40
2022-10-17T06:22:40.187Z,19.00
2022-10-17T06:25:13.802Z,17.90
2022-10-17T06:27:42.489Z,15.80
2022-10-17T06:30:11.630Z,18.50
2022-10-17T06:32:39.600Z,20.70
2022-10-17T06:35:08.003Z,15.50
2022-10-17T06:37:38.103Z,14.50
2022-10-17T06:40:12.213Z,19.30
2022-10-17T06:42:41.161Z,18.80
2022-10-17T06:45:29.347Z,16.80
2022-10-17T06:48:18.949Z,17.20
2022-10-17T06:51:11.401Z,15.50
2022-10-17T06:53:49.754Z,13.60
2022-10-17T06:56:30.748Z,20.30
2022-10-17T06:59:15.790Z,17.40
2022-10-17T07:01:51.384Z,18.10
2022-10-17T07:04:19.758Z,16.60
2022-10-17T07:06:47.703Z,18.20
2022-10-17T07:09:19.025Z,17.50
2022-10-17T07:11:47.133Z,18.90
2022-10-17T07:14:18.400Z,19.50
2022-10-17T07:16:47.405Z,17.70
2022-10-17T07:19:19.259Z,16.10
2022-10-17T07:21:47.278Z,20.70
2022-10-17T07:24:15.111Z,18.50
2022-10-17T07:26:47.147Z,15.40
2022-10-17T07:29:15.722Z,17.80
2022-10-17T07:31:49.010Z,20.30
2022-10-17T07:34:16.871Z,20.70
2022-10-17T07:36:46.187Z,26.50
2022-10-17T07:39:15.581Z,25.70
2022-10-17T07:41:43.479Z,24.00
2022-10-17T07:44:11.698Z,19.80
2022-10-17T07:46:45.948Z,18.60
2022-10-17T07:49:14.149Z,17.80
2022-10-17T07:51:42.454Z,15.20
2022-10-17T07:54:10.740Z,20.30
2022-10-17T07:56:38.666Z,19.40
2022-10-17T07:59:09.186Z,25.70
2022-10-17T08:01:38.000Z,24.20
2022-10-17T08:04:05.811Z,24.40
2022-10-17T08:06:33.824Z,21.30
2022-10-17T08:09:02.200Z,21.90
2022-10-17T08:11:30.084Z,18.60
2022-10-17T08:13:57.964Z,18.20
2022-10-17T08:16:25.881Z,16.40
2022-10-17T08:18:54.091Z,14.30
2022-10-17T08:21:22.447Z,19.40
2022-10-17T08:23:50.369Z,16.10
2022-10-17T08:26:20.119Z,16.20
2022-10-17T08:28:48.701Z,14.30
2022-10-17T08:31:19.765Z,15.00
2022-10-17T08:33:49.445Z,12.70
2022-10-17T08:36:19.006Z,11.30
2022-10-17T08:38:52.415Z,11.70
2022-10-17T08:41:39.505Z,12.30
2022-10-17T08:44:16.174Z,12.60
2022-10-17T08:46:48.166Z,14.20
2022-10-17T08:49:37.862Z,12.20
2022-10-17T08:52:15.346Z,11.30
2022-10-17T08:54:48.677Z,12.50
2022-10-17T08:57:18.185Z,12.90
2022-10-17T08:59:52.106Z,14.60
2022-10-17T09:02:39.107Z,12.50
2022-10-17T09:05:31.247Z,15.40
2022-10-17T09:08:03.307Z,16.00
2022-10-17T09:10:31.092Z,11.50
2022-10-17T09:16:18.963Z,14.00
2022-10-17T09:19:01.208Z,15.50
2022-10-17T09:21:44.868Z,11.90
2022-10-17T09:24:33.881Z,17.10
2022-10-17T09:27:02.928Z,13.20
2022-10-17T09:29:36.932Z,18.30
2022-10-17T09:32:20.969Z,11.70
2022-10-17T09:34:49.003Z,12.80
2022-10-17T09:37:17.870Z,11.70
2022-10-17T09:39:46.067Z,16.10
2022-10-17T09:42:19.433Z,16.00
2022-10-17T09:44:52.997Z,13.60
2022-10-17T09:47:45.778Z,11.70
2022-10-17T09:50:25.428Z,20.80
2022-10-17T09:52:54.378Z,35.30
2022-10-17T09:55:45.513Z,17.80
2022-10-17T09:58:13.429Z,25.90
2022-10-17T10:00:43.670Z,22.10
2022-10-17T10:03:17.469Z,23.90
2022-10-17T10:06:05.126Z,18.50
2022-10-17T10:08:37.285Z,19.70
2022-10-17T10:11:11.830Z,19.20
2022-10-17T10:13:43.228Z,16.70
2022-10-17T10:16:32.533Z,16.40
2022-10-17T10:19:00.521Z,22.70
2022-10-17T10:21:29.334Z,20.30
2022-10-17T10:24:13.338Z,15.60
2022-10-17T10:26:45.143Z,16.90
2022-10-17T10:29:36.760Z,16.40
2022-10-17T10:32:09.038Z,18.40
2022-10-17T10:34:39.519Z,17.70
2022-10-17T10:37:18.452Z,18.20
2022-10-17T10:39:50.696Z,19.30
2022-10-17T10:42:31.647Z,19.20
2022-10-17T10:45:43.346Z,18.60
2022-10-17T10:48:25.475Z,16.40
2022-10-17T10:50:58.089Z,15.40
2022-10-17T10:53:44.708Z,18.70
2022-10-17T10:56:19.946Z,15.20
2022-10-17T10:59:00.605Z,17.20
2022-10-17T11:01:45.952Z,14.30
2022-10-17T11:04:19.849Z,13.20
2022-10-17T11:06:50.754Z,13.00
2022-10-17T11:09:55.920Z,12.00
2022-10-17T11:12:35.850Z,12.10
2022-10-17T11:15:09.690Z,11.80
2022-10-17T11:17:44.027Z,10.20
2022-10-17T11:20:23.150Z,11.70
2022-10-17T11:22:58.863Z,10.30
2022-10-17T11:25:41.091Z,13.80
2022-10-17T11:28:15.683Z,12.50
2022-10-17T11:31:03.315Z,11.90
2022-10-17T11:33:36.784Z,12.20
2022-10-17T11:36:08.272Z,12.20
2022-10-17T11:38:47.644Z,11.20
2022-10-17T11:41:34.680Z,15.90
2022-10-17T11:44:23.421Z,10.10
2022-10-17T11:47:11.507Z,10.00
2022-10-17T11:49:47.281Z,13.30
2022-10-17T11:53:02.643Z,10.40
2022-10-17T11:55:32.301Z,8.60
2022-10-17T11:58:12.425Z,13.50
2022-10-17T12:00:48.994Z,7.90
2022-10-17T12:03:23.532Z,12.10
2022-10-17T12:06:04.853Z,7.60
2022-10-17T12:08:47.291Z,9.80
2022-10-17T12:11:23.481Z,8.60
2022-10-17T12:13:54.598Z,9.10
2022-10-17T12:16:23.352Z,8.50
2022-10-17T12:19:19.616Z,10.00
2022-10-17T12:21:57.968Z,7.40
2022-10-17T12:24:40.050Z,8.50
2022-10-17T12:27:38.560Z,9.90
2022-10-17T12:30:06.958Z,9.90
2022-10-17T12:33:03.791Z,8.20
2022-10-17T12:35:25.733Z,8.70
2022-10-17T12:37:57.317Z,6.70
2022-10-17T12:40:35.608Z,8.10
2022-10-17T12:43:15.493Z,9.10
2022-10-17T12:45:51.963Z,10.40
2022-10-17T12:49:02.266Z,10.80
2022-10-17T12:51:35.698Z,10.00
2022-10-17T12:54:16.116Z,8.80
2022-10-17T12:56:49.166Z,10.90
2022-10-17T12:59:21.890Z,8.80
2022-10-17T13:01:53.613Z,11.10
2022-10-17T13:04:22.077Z,10.70
2022-10-17T13:06:54.469Z,10.10
2022-10-17T13:09:52.209Z,9.50
2022-10-17T13:12:27.728Z,8.30
2022-10-17T13:14:56.325Z,10.60
2022-10-17T13:17:31.223Z,9.20
2022-10-17T13:19:59.299Z,9.30
2022-10-17T13:22:33.005Z,13.40
2022-10-17T13:25:16.022Z,6.60
2022-10-17T13:27:44.257Z,11.60
2022-10-17T13:30:32.411Z,9.30
2022-10-17T13:33:02.318Z,10.40
2022-10-17T13:35:59.034Z,11.40
2022-10-17T13:38:28.494Z,7.10
2022-10-17T13:41:05.930Z,7.80
2022-10-17T13:43:39.083Z,9.50
2022-10-17T13:46:32.546Z,10.10
2022-10-17T13:48:59.370Z,10.30
2022-10-17T13:51:27.780Z,9.40
2022-10-17T13:53:56.189Z,12.10
2022-10-17T13:56:28.784Z,11.20
2022-10-17T13:59:01.453Z,10.60
2022-10-17T14:01:30.259Z,9.70
2022-10-17T14:04:08.861Z,9.90
2022-10-17T14:06:46.229Z,8.70
2022-10-17T14:09:29.435Z,10.80
2022-10-17T14:12:16.619Z,8.70
2022-10-17T14:15:11.497Z,12.40
2022-10-17T14:17:39.564Z,15.70
2022-10-17T14:20:48.241Z,11.90
2022-10-17T14:23:21.620Z,11.10
2022-10-17T14:25:46.963Z,16.30
2022-10-17T14:28:16.989Z,10.90
2022-10-17T14:30:56.674Z,19.10
2022-10-17T14:33:30.336Z,13.70
2022-10-17T14:36:00.805Z,16.50
2022-10-17T14:38:30.424Z,16.80
2022-10-17T14:41:42.573Z,14.00
2022-10-17T14:44:30.955Z,11.60
2022-10-17T14:47:30.291Z,15.60
2022-10-17T14:50:04.148Z,18.90
2022-10-17T14:52:33.441Z,14.00
2022-10-17T14:55:22.179Z,23.20
2022-10-17T14:57:50.284Z,15.70
2022-10-17T15:00:20.394Z,16.10
2022-10-17T15:02:49.821Z,18.90
2022-10-17T15:05:19.491Z,18.10
2022-10-17T15:07:47.332Z,17.90
2022-10-17T15:10:24.622Z,18.60
2022-10-17T15:12:59.229Z,20.30
2022-10-17T15:15:39.212Z,18.40
2022-10-17T15:18:08.100Z,19.00
2022-10-17T15:20:36.033Z,17.20
2022-10-17T15:23:04.599Z,12.80
2022-10-17T15:25:32.682Z,17.40
2022-10-17T15:28:00.508Z,20.50
2022-10-17T15:30:32.527Z,16.20
2022-10-17T15:33:00.760Z,13.90
2022-10-17T15:35:29.090Z,20.40
2022-10-17T15:37:56.977Z,16.20
2022-10-17T15:40:30.087Z,29.50
2022-10-17T15:42:58.289Z,25.90
2022-10-17T15:45:26.214Z,28.70
2022-10-17T15:47:57.040Z,24.70
2022-10-17T15:50:24.945Z,21.90
2022-10-17T15:52:52.838Z,16.30
2022-10-17T15:55:20.804Z,22.80
2022-10-17T15:57:49.204Z,17.50
2022-10-17T16:00:21.004Z,22.20
2022-10-17T16:02:49.827Z,28.10
2022-10-17T16:05:25.653Z,17.00
2022-10-17T16:07:54.172Z,18.90
2022-10-17T16:10:23.188Z,18.80
2022-10-17T16:12:51.243Z,17.80
2022-10-17T16:15:25.011Z,16.10
2022-10-17T16:17:54.484Z,16.80
2022-10-17T16:20:23.837Z,18.80
2022-10-17T16:22:59.683Z,16.50
2022-10-17T16:25:29.354Z,25.10
2022-10-17T16:27:59.792Z,22.80
2022-10-17T16:30:29.671Z,19.40
2022-10-17T16:32:57.693Z,24.50
2022-10-17T16:35:31.931Z,18.10
2022-10-17T16:38:03.225Z,19.50
2022-10-17T16:40:31.998Z,16.60
2022-10-17T16:43:00.140Z,20.40
2022-10-17T16:45:28.088Z,27.40
2022-10-17T16:47:56.121Z,33.30
2022-10-17T16:50:24.591Z,41.30
2022-10-17T16:52:52.567Z,42.80
2022-10-17T16:55:20.626Z,33.30
2022-10-17T16:57:49.297Z,41.60
2022-10-17T17:00:18.068Z,35.80
2022-10-17T17:02:48.931Z,39.40
2022-10-17T17:05:16.796Z,41.30
2022-10-17T17:07:47.424Z,33.70
2022-10-17T17:10:16.367Z,39.50
2022-10-17T17:12:44.344Z,41.90
2022-10-17T17:15:12.207Z,45.30
2022-10-17T17:17:55.952Z,45.80
2022-10-17T17:20:24.272Z,59.30
2022-10-17T17:22:52.428Z,60.30
2022-10-17T17:25:21.289Z,67.20
2022-10-17T17:27:49.192Z,51.00
2022-10-17T17:30:17.221Z,52.80
2022-10-17T17:32:45.150Z,53.40
2022-10-17T17:35:13.031Z,57.70
2022-10-17T17:37:40.920Z,74.40
2022-10-17T17:40:09.280Z,62.90
2022-10-17T17:42:37.176Z,63.80
2022-10-17T17:45:05.683Z,66.10
2022-10-17T17:47:33.663Z,60.20
2022-10-17T17:50:03.334Z,68.40
2022-10-17T17:52:31.507Z,62.50
2022-10-17T17:54:59.596Z,59.50
2022-10-17T17:57:29.477Z,62.70
2022-10-17T17:59:57.455Z,56.90
2022-10-17T18:02:25.497Z,63.30
2022-10-17T18:04:53.418Z,54.80
2022-10-17T18:07:21.377Z,55.20
2022-10-17T18:09:50.981Z,52.80
2022-10-17T18:12:18.923Z,55.00
2022-10-17T18:14:47.736Z,55.70
2022-10-17T18:17:15.676Z,56.80
2022-10-17T18:19:43.596Z,50.40
2022-10-17T18:22:11.583Z,54.50
2022-10-17T18:24:39.408Z,64.30
2022-10-17T18:27:07.475Z,71.20
2022-10-17T18:29:35.488Z,76.20
2022-10-17T18:32:03.376Z,75.00
2022-10-17T18:34:31.205Z,77.30
2022-10-17T18:36:59.996Z,69.00
2022-10-17T18:39:27.999Z,71.40
2022-10-17T18:41:55.897Z,84.00
2022-10-17T18:44:23.904Z,69.60
2022-10-17T18:46:51.780Z,90.90
2022-10-17T18:49:20.708Z,93.70
2022-10-17T18:51:48.958Z,93.10
2022-10-17T18:54:21.608Z,94.40
2022-10-17T18:56:52.193Z,90.80
2022-10-17T18:59:20.799Z,90.00
2022-10-17T19:01:49.040Z,91.80
2022-10-17T19:04:16.983Z,79.50
2022-10-17T19:06:44.906Z,74.30
2022-10-17T19:09:14.167Z,75.60
2022-10-17T19:11:42.912Z,68.60
2022-10-17T19:14:13.492Z,54.90
2022-10-17T19:16:47.733Z,48.40
2022-10-17T19:19:21.853Z,56.70
2022-10-17T19:21:50.235Z,60.10
2022-10-17T19:24:21.828Z,59.80
2022-10-17T19:26:53.436Z,65.40
2022-10-17T19:29:24.470Z,70.10
2022-10-17T19:31:52.562Z,69.80
2022-10-17T19:34:20.587Z,77.10
2022-10-17T19:36:48.856Z,72.10
2022-10-17T19:39:22.803Z,66.60
2022-10-17T19:41:50.918Z,66.70
2022-10-17T19:44:18.934Z,69.50
2022-10-17T19:46:49.502Z,65.50
2022-10-17T19:49:17.710Z,62.80
2022-10-17T19:51:45.899Z,83.90
2022-10-17T19:54:15.228Z,77.20
2022-10-17T19:56:43.581Z,78.10
2022-10-17T19:59:13.896Z,89.90
2022-10-17T20:01:42.665Z,84.00
2022-10-17T20:04:12.292Z,78.60
2022-10-17T20:06:41.319Z,67.10
2022-10-17T20:09:14.051Z,72.90
2022-10-17T20:11:44.927Z,61.70
2022-10-17T20:14:12.851Z,66.60
2022-10-17T20:16:40.723Z,64.20
2022-10-17T20:19:11.189Z,65.20
2022-10-17T20:21:39.950Z,60.80
2022-10-17T20:24:11.598Z,49.30
2022-10-17T20:26:40.548Z,44.20
2022-10-17T20:29:13.211Z,51.50
2022-10-17T20:31:43.585Z,43.30
2022-10-17T20:34:13.947Z,50.70
2022-10-17T20:36:42.123Z,51.40
2022-10-17T20:39:12.279Z,52.10
2022-10-17T20:41:40.668Z,50.50
2022-10-17T20:44:08.828Z,52.40
2022-10-17T20:46:39.768Z,58.30
2022-10-17T20:49:18.356Z,55.70
2022-10-17T20:51:46.647Z,54.50
2022-10-17T20:54:14.649Z,59.30
2022-10-17T20:56:42.567Z,57.50
2022-10-17T20:59:16.589Z,60.50
2022-10-17T21:01:45.462Z,56.90
2022-10-17T21:07:02.317Z,61.00
2022-10-17T21:09:31.647Z,55.40
2022-10-17T21:14:36.424Z,57.00
2022-10-17T21:17:05.407Z,62.40
2022-10-17T21:19:34.036Z,57.00
2022-10-17T21:22:01.870Z,57.50
2022-10-17T21:24:30.993Z,57.60
2022-10-17T21:26:59.014Z,58.90
2022-10-17T21:29:26.957Z,57.00
2022-10-17T21:31:54.848Z,54.00
2022-10-17T21:34:26.506Z,61.20
2022-10-17T21:36:54.439Z,59.10
2022-10-17T21:39:24.829Z,56.50
2022-10-17T21:41:53.767Z,55.70
2022-10-17T21:44:25.247Z,53.60
2022-10-17T21:46:54.296Z,54.60
2022-10-17T21:49:24.272Z,53.30
2022-10-17T21:51:52.669Z,51.30
2022-10-17T21:54:23.045Z,52.40
2022-10-17T21:56:51.676Z,53.00
2022-10-17T21:59:19.511Z,46.60
2022-10-17T22:01:47.435Z,48.20
2022-10-17T22:04:17.604Z,45.00
2022-10-17T22:06:47.493Z,49.30
2022-10-17T22:09:18.577Z,51.20
2022-10-17T22:11:49.474Z,48.80
2022-10-17T22:14:19.502Z,49.20
2022-10-17T22:16:49.002Z,49.70
2022-10-17T22:19:20.275Z,46.30
2022-10-17T22:21:48.825Z,49.70
2022-10-17T22:24:18.561Z,43.30
2022-10-17T22:26:46.764Z,42.50
2022-10-17T22:29:14.736Z,43.10
2022-10-17T22:31:42.868Z,46.70
2022-10-17T22:34:13.513Z,53.70
2022-10-17T22:36:42.464Z,42.00
2022-10-17T22:39:11.123Z,52.00
2022-10-17T22:41:39.110Z,39.70
2022-10-17T22:44:07.189Z,43.10
2022-10-17T22:46:35.996Z,42.90
2022-10-17T22:49:04.304Z,45.20
2022-10-17T22:51:32.181Z,42.40
2022-10-17T22:54:00.042Z,39.40
2022-10-17T22:56:28.131Z,41.60
2022-10-17T22:58:56.010Z,38.20
2022-10-17T23:01:25.836Z,39.70
2022-10-17T23:03:54.092Z,32.80
2022-10-17T23:06:23.871Z,34.10
2022-10-17T23:08:52.360Z,35.40
2022-10-17T23:11:21.036Z,35.20
2022-10-17T23:13:49.142Z,48.40
2022-10-17T23:16:17.299Z,46.90
2022-10-17T23:18:45.640Z,41.00
2022-10-17T23:21:13.694Z,47.60
2022-10-17T23:23:41.796Z,47.10
2022-10-17T23:26:12.457Z,50.10
2022-10-17T23:28:41.221Z,59.80
2022-10-17T23:31:18.376Z,48.70
2022-10-17T23:33:47.622Z,45.50
2022-10-17T23:36:18.126Z,40.20
2022-10-17T23:38:47.670Z,37.60
2022-10-17T23:41:16.635Z,36.10
2022-10-17T23:43:44.873Z,31.90
2022-10-17T23:46:13.108Z,37.80
2022-10-17T23:48:41.241Z,38.30
2022-10-17T23:51:10.428Z,31.30
2022-10-17T23:53:39.201Z,60.70
2022-10-17T23:56:09.090Z,34.30
2022-10-17T23:58:38.105Z,38.70
